createdAt,value
2022-09-10T00:00:32.148Z,0.00
2022-09-10T00:01:32.207Z,0.00
2022-09-10T00:02:32.162Z,0.00
2022-09-10T00:03:32.107Z,0.00
2022-09-10T00:04:32.121Z,0.00
2022-09-10T00:05:32.091Z,0.00
2022-09-10T00:06:32.079Z,0.00
2022-09-10T00:07:32.068Z,0.00
2022-09-10T00:08:32.063Z,0.00
2022-09-10T00:09:32.052Z,0.00
2022-09-10T00:10:32.057Z,0.00
2022-09-10T00:11:32.254Z,0.00
2022-09-10T00:12:32.036Z,0.00
2022-09-10T00:13:32.005Z,0.00
2022-09-10T00:14:31.993Z,0.00
2022-09-10T00:15:32.005Z,0.00
2022-09-10T00:16:32.001Z,0.00
2022-09-10T00:17:31.960Z,0.00
2022-09-10T00:18:31.961Z,0.00
2022-09-10T00:19:31.954Z,0.00
2022-09-10T00:20:31.952Z,0.00
2022-09-10T00:21:31.926Z,0.00
2022-09-10T00:22:31.914Z,0.00
2022-09-10T00:23:31.899Z,0.00
2022-09-10T00:24:31.906Z,0.00
2022-09-10T00:25:31.895Z,0.00
2022-09-10T00:26:31.873Z,0.00
2022-09-10T00:27:31.859Z,0.00
2022-09-10T00:28:31.844Z,0.00
2022-09-10T00:29:31.843Z,0.00
2022-09-10T00:30:31.841Z,0.00
2022-09-10T00:31:31.867Z,0.00
2022-09-10T00:32:31.801Z,0.00
2022-09-10T00:33:31.797Z,0.00
2022-09-10T00:34:31.784Z,0.00
2022-09-10T00:35:31.799Z,0.00
2022-09-10T00:36:31.761Z,0.00
2022-09-10T00:37:31.751Z,0.00
2022-09-10T00:38:31.807Z,0.00
2022-09-10T00:39:31.795Z,0.00
2022-09-10T00:40:31.738Z,0.00
2022-09-10T00:41:31.703Z,0.00
2022-09-10T00:42:31.700Z,0.00
2022-09-10T00:43:31.685Z,0.00
2022-09-10T00:44:35.551Z,0.00
2022-09-10T00:45:31.728Z,0.00
2022-09-10T00:46:31.664Z,0.00
2022-09-10T00:47:31.653Z,0.00
2022-09-10T00:48:31.681Z,0.00
2022-09-10T00:49:31.641Z,0.00
2022-09-10T00:50:31.639Z,0.00
2022-09-10T00:51:31.612Z,0.00
2022-09-10T00:52:31.583Z,0.00
2022-09-10T00:53:31.581Z,0.00
2022-09-10T00:54:31.566Z,0.00
2022-09-10T00:55:31.581Z,0.00
2022-09-10T00:56:31.547Z,0.00
2022-09-10T00:57:31.538Z,0.00
2022-09-10T00:58:31.575Z,0.00
2022-09-10T00:59:31.537Z,0.00
2022-09-10T01:00:31.617Z,0.00
2022-09-10T01:01:31.504Z,0.00
2022-09-10T01:02:31.491Z,0.00
2022-09-10T01:03:31.463Z,0.00
2022-09-10T01:04:31.456Z,0.00
2022-09-10T01:05:31.475Z,0.00
2022-09-10T01:06:31.448Z,0.00
2022-09-10T01:07:31.450Z,0.00
2022-09-10T01:08:31.560Z,0.00
2022-09-10T01:09:31.420Z,0.00
2022-09-10T01:10:31.435Z,0.00
2022-09-10T01:11:32.157Z,0.00
2022-09-10T01:12:35.714Z,0.00
2022-09-10T01:13:31.376Z,0.00
2022-09-10T01:14:31.364Z,0.00
2022-09-10T01:15:31.372Z,0.00
2022-09-10T01:16:31.341Z,0.00
2022-09-10T01:17:31.326Z,0.00
2022-09-10T01:18:31.346Z,0.00
2022-09-10T01:19:31.292Z,0.00
2022-09-10T01:20:31.337Z,0.00
2022-09-10T01:21:31.321Z,0.00
2022-09-10T01:22:31.275Z,0.00
2022-09-10T01:23:31.264Z,0.00
2022-09-10T01:24:31.247Z,0.00
2022-09-10T01:25:31.254Z,0.00
2022-09-10T01:26:31.236Z,0.00
2022-09-10T01:27:31.229Z,0.00
2022-09-10T01:28:31.303Z,0.00
2022-09-10T01:29:31.192Z,0.00
2022-09-10T01:30:31.212Z,0.00
2022-09-10T01:31:31.206Z,0.00
2022-09-10T01:32:31.185Z,0.00
2022-09-10T01:33:31.151Z,0.00
2022-09-10T01:34:31.142Z,0.00
2022-09-10T01:35:31.153Z,0.00
2022-09-10T01:36:31.125Z,0.00
2022-09-10T01:37:31.109Z,0.00
2022-09-10T01:38:31.138Z,0.00
2022-09-10T01:39:31.105Z,0.00
2022-09-10T01:40:31.097Z,0.00
2022-09-10T01:41:31.086Z,0.00
2022-09-10T01:42:31.057Z,0.00
2022-09-10T01:43:31.041Z,0.00
2022-09-10T01:44:31.031Z,0.00
2022-09-10T01:45:31.067Z,0.00
2022-09-10T01:46:31.021Z,0.00
2022-09-10T01:47:30.999Z,0.00
2022-09-10T01:48:31.046Z,0.00
2022-09-10T01:49:30.978Z,0.00
2022-09-10T01:50:31.021Z,0.00
2022-09-10T01:51:30.957Z,0.00
2022-09-10T01:52:30.954Z,0.00
2022-09-10T01:53:30.942Z,0.00
2022-09-10T01:54:30.944Z,0.00
2022-09-10T01:55:30.926Z,0.00
2022-09-10T01:56:30.902Z,0.00
2022-09-10T01:57:30.914Z,0.00
2022-09-10T01:58:30.906Z,0.00
2022-09-10T01:59:30.866Z,0.00
2022-09-10T02:00:30.898Z,0.00
2022-09-10T02:01:30.845Z,0.00
2022-09-10T02:02:30.860Z,0.00
2022-09-10T02:03:30.833Z,0.00
2022-09-10T02:04:30.829Z,0.00
2022-09-10T02:05:30.837Z,0.00
2022-09-10T02:06:30.798Z,0.00
2022-09-10T02:07:30.801Z,0.00
2022-09-10T02:08:30.819Z,0.00
2022-09-10T02:09:30.758Z,0.00
2022-09-10T02:10:30.774Z,0.00
2022-09-10T02:11:30.742Z,0.00
2022-09-10T02:12:30.744Z,0.00
2022-09-10T02:13:30.723Z,0.00
2022-09-10T02:14:30.723Z,0.00
2022-09-10T02:15:30.723Z,0.00
2022-09-10T02:16:30.743Z,0.00
2022-09-10T02:17:30.681Z,0.00
2022-09-10T02:18:30.715Z,0.00
2022-09-10T02:19:30.660Z,0.00
2022-09-10T02:20:30.680Z,0.00
2022-09-10T02:21:30.639Z,0.00
2022-09-10T02:22:30.675Z,0.00
2022-09-10T02:23:30.622Z,0.00
2022-09-10T02:24:30.617Z,0.00
2022-09-10T02:25:30.619Z,0.00
2022-09-10T02:26:30.616Z,0.00
2022-09-10T02:27:30.583Z,0.00
2022-09-10T02:28:30.562Z,0.00
2022-09-10T02:29:30.551Z,0.00
2022-09-10T02:30:30.561Z,0.00
2022-09-10T02:31:30.605Z,0.00
2022-09-10T02:32:30.535Z,0.00
2022-09-10T02:33:30.534Z,0.00
2022-09-10T02:34:30.508Z,0.00
2022-09-10T02:35:30.503Z,0.00
2022-09-10T02:36:30.478Z,0.00
2022-09-10T02:37:30.490Z,0.00
2022-09-10T02:38:30.459Z,0.00
2022-09-10T02:39:30.447Z,0.00
2022-09-10T02:40:30.448Z,0.00
2022-09-10T02:41:30.437Z,0.00
2022-09-10T02:42:30.425Z,0.00
2022-09-10T02:43:30.406Z,0.00
2022-09-10T02:44:30.398Z,0.00
2022-09-10T02:45:30.423Z,0.00
2022-09-10T02:46:30.381Z,0.00
2022-09-10T02:47:30.358Z,0.00
2022-09-10T02:48:30.374Z,0.00
2022-09-10T02:49:30.342Z,0.00
2022-09-10T02:50:30.334Z,0.00
2022-09-10T02:51:30.345Z,0.00
2022-09-10T02:52:30.315Z,0.00
2022-09-10T02:53:30.306Z,0.00
2022-09-10T02:54:30.286Z,0.00
2022-09-10T02:55:30.272Z,0.00
2022-09-10T02:56:30.282Z,0.00
2022-09-10T02:57:30.263Z,0.00
2022-09-10T02:58:30.329Z,0.00
2022-09-10T02:59:30.238Z,0.00
2022-09-10T03:00:30.223Z,0.00
2022-09-10T03:01:30.289Z,0.00
2022-09-10T03:02:30.210Z,0.00
2022-09-10T03:03:30.199Z,0.00
2022-09-10T03:04:30.195Z,0.00
2022-09-10T03:05:30.243Z,0.00
2022-09-10T03:06:30.171Z,0.00
2022-09-10T03:07:30.155Z,0.00
2022-09-10T03:08:30.242Z,0.00
2022-09-10T03:09:30.139Z,0.00
2022-09-10T03:10:30.112Z,0.00
2022-09-10T03:11:30.147Z,0.00
2022-09-10T03:12:30.099Z,0.00
2022-09-10T03:13:30.092Z,0.00
2022-09-10T03:14:30.068Z,0.00
2022-09-10T03:15:30.061Z,0.00
2022-09-10T03:16:30.134Z,0.00
2022-09-10T03:17:30.043Z,0.00
2022-09-10T03:18:30.048Z,0.00
2022-09-10T03:19:30.018Z,0.00
2022-09-10T03:20:30.007Z,0.00
2022-09-10T03:21:30.021Z,0.00
2022-09-10T03:22:29.980Z,0.00
2022-09-10T03:23:29.983Z,0.00
2022-09-10T03:24:29.958Z,0.00
2022-09-10T03:25:29.947Z,0.00
2022-09-10T03:26:29.989Z,0.00
2022-09-10T03:27:29.955Z,0.00
2022-09-10T03:28:29.949Z,0.00
2022-09-10T03:29:29.908Z,0.00
2022-09-10T03:30:29.902Z,0.00
2022-09-10T03:31:29.940Z,0.00
2022-09-10T03:32:29.884Z,0.00
2022-09-10T03:33:29.900Z,0.00
2022-09-10T03:34:29.853Z,0.00
2022-09-10T03:35:29.833Z,0.00
2022-09-10T03:36:29.851Z,0.00
2022-09-10T03:37:29.847Z,0.00
2022-09-10T03:38:29.881Z,0.00
2022-09-10T03:39:29.786Z,0.00
2022-09-10T03:40:29.812Z,0.00
2022-09-10T03:41:29.790Z,0.00
2022-09-10T03:42:29.781Z,0.00
2022-09-10T03:43:29.749Z,0.00
2022-09-10T03:44:29.767Z,0.00
2022-09-10T03:45:29.773Z,0.00
2022-09-10T03:46:29.742Z,0.00
2022-09-10T03:47:29.708Z,0.00
2022-09-10T03:48:29.728Z,0.00
2022-09-10T03:49:29.700Z,0.00
2022-09-10T03:50:29.681Z,0.00
2022-09-10T03:51:29.704Z,0.00
2022-09-10T03:52:29.654Z,0.00
2022-09-10T03:53:29.643Z,0.00
2022-09-10T03:54:29.637Z,0.00
2022-09-10T03:55:29.651Z,0.00
2022-09-10T03:56:29.632Z,0.00
2022-09-10T03:57:29.591Z,0.00
2022-09-10T03:58:29.592Z,0.00
2022-09-10T03:59:29.576Z,0.00
2022-09-10T04:00:29.570Z,0.00
2022-09-10T04:01:29.592Z,0.00
2022-09-10T04:02:29.590Z,0.00
2022-09-10T04:03:29.550Z,0.00
2022-09-10T04:04:29.533Z,0.00
2022-09-10T04:05:29.505Z,0.00
2022-09-10T04:06:29.517Z,0.00
2022-09-10T04:07:29.485Z,0.00
2022-09-10T04:08:29.516Z,0.00
2022-09-10T04:09:29.466Z,0.00
2022-09-10T04:10:29.458Z,0.00
2022-09-10T04:11:29.469Z,0.00
2022-09-10T04:12:29.437Z,0.00
2022-09-10T04:13:29.420Z,0.00
2022-09-10T04:14:29.445Z,0.00
2022-09-10T04:15:29.423Z,0.00
2022-09-10T04:16:29.484Z,0.00
2022-09-10T04:17:29.385Z,0.00
2022-09-10T04:18:29.399Z,0.00
2022-09-10T04:19:29.365Z,0.00
2022-09-10T04:20:29.349Z,0.00
2022-09-10T04:21:29.362Z,4.00
2022-09-10T04:22:29.335Z,4.00
2022-09-10T04:23:29.324Z,4.00
2022-09-10T04:24:29.301Z,4.00
2022-09-10T04:25:29.293Z,4.00
2022-09-10T04:26:29.319Z,8.00
2022-09-10T04:27:29.344Z,4.00
2022-09-10T04:28:29.255Z,8.00
2022-09-10T04:29:29.262Z,8.00
2022-09-10T04:30:29.252Z,8.00
2022-09-10T04:31:29.298Z,12.00
2022-09-10T04:32:29.216Z,12.00
2022-09-10T04:33:29.202Z,12.00
2022-09-10T04:34:29.197Z,12.00
2022-09-10T04:35:29.220Z,16.00
2022-09-10T04:36:29.207Z,20.00
2022-09-10T04:37:29.156Z,20.00
2022-09-10T04:38:29.169Z,24.00
2022-09-10T04:39:29.159Z,28.00
2022-09-10T04:40:29.146Z,32.00
2022-09-10T04:41:29.187Z,32.00
2022-09-10T04:42:29.141Z,40.00
2022-09-10T04:43:29.117Z,44.00
2022-09-10T04:44:29.084Z,44.00
2022-09-10T04:45:29.102Z,52.00
2022-09-10T04:46:29.106Z,56.00
2022-09-10T04:47:29.043Z,64.00
2022-09-10T04:48:29.039Z,68.00
2022-09-10T04:49:29.046Z,76.00
2022-09-10T04:50:29.031Z,84.00
2022-09-10T04:51:29.037Z,92.00
2022-09-10T04:52:29.021Z,100.00
2022-09-10T04:53:35.575Z,108.00
2022-09-10T04:54:28.980Z,120.00
2022-09-10T04:55:28.967Z,128.00
2022-09-10T04:56:28.978Z,140.00
2022-09-10T04:57:28.943Z,148.00
2022-09-10T04:58:28.946Z,152.00
2022-09-10T04:59:28.996Z,160.00
2022-09-10T05:00:28.925Z,168.00
2022-09-10T05:01:28.928Z,176.00
2022-09-10T05:02:28.953Z,184.00
2022-09-10T05:03:28.908Z,196.00
2022-09-10T05:04:28.885Z,200.00
2022-09-10T05:05:28.863Z,208.00
2022-09-10T05:06:28.868Z,216.00
2022-09-10T05:07:28.876Z,224.00
2022-09-10T05:08:28.850Z,236.00
2022-09-10T05:09:28.857Z,248.00
2022-09-10T05:10:28.809Z,264.00
2022-09-10T05:11:28.863Z,280.00
2022-09-10T05:12:28.799Z,292.00
2022-09-10T05:13:28.764Z,300.00
2022-09-10T05:14:28.766Z,308.00
2022-09-10T05:15:28.760Z,320.00
2022-09-10T05:16:28.832Z,328.00
2022-09-10T05:17:28.723Z,340.00
2022-09-10T05:18:28.768Z,356.00
2022-09-10T05:19:28.728Z,384.00
2022-09-10T05:20:28.713Z,404.00
2022-09-10T05:21:28.720Z,424.00
2022-09-10T05:22:36.088Z,444.00
2022-09-10T05:23:28.690Z,464.00
2022-09-10T05:24:28.666Z,484.00
2022-09-10T05:25:28.668Z,504.00
2022-09-10T05:26:28.669Z,520.00
2022-09-10T05:27:28.629Z,528.00
2022-09-10T05:28:28.619Z,532.00
2022-09-10T05:29:28.594Z,536.00
2022-09-10T05:30:28.589Z,544.00
2022-09-10T05:31:28.666Z,564.00
2022-09-10T05:32:28.584Z,580.00
2022-09-10T05:33:28.560Z,596.00
2022-09-10T05:34:28.554Z,620.00
2022-09-10T05:35:28.534Z,640.00
2022-09-10T05:36:28.559Z,668.00
2022-09-10T05:37:28.516Z,688.00
2022-09-10T05:38:28.507Z,708.00
2022-09-10T05:39:28.481Z,732.00
2022-09-10T05:40:28.496Z,756.00
2022-09-10T05:41:28.527Z,776.00
2022-09-10T05:42:28.487Z,796.00
2022-09-10T05:43:28.457Z,820.00
2022-09-10T05:44:28.455Z,844.00
2022-09-10T05:45:28.499Z,864.00
2022-09-10T05:46:28.452Z,888.00
2022-09-10T05:47:28.449Z,912.00
2022-09-10T05:48:28.410Z,940.00
2022-09-10T05:49:28.439Z,960.00
2022-09-10T05:50:28.393Z,980.00
2022-09-10T05:51:28.377Z,988.00
2022-09-10T05:52:28.353Z,1000.00
2022-09-10T05:53:28.365Z,1024.00
2022-09-10T05:54:28.350Z,1040.00
2022-09-10T05:55:28.314Z,1052.00
2022-09-10T05:56:28.326Z,1068.00
2022-09-10T05:57:28.302Z,1100.00
2022-09-10T05:58:28.302Z,1140.00
2022-09-10T05:59:28.284Z,1188.00
2022-09-10T06:00:28.293Z,1240.00
2022-09-10T06:01:28.298Z,1292.00
2022-09-10T06:02:28.369Z,1344.00
2022-09-10T06:03:28.270Z,1388.00
2022-09-10T06:04:28.260Z,1416.00
2022-09-10T06:05:28.219Z,1436.00
2022-09-10T06:06:28.276Z,1460.00
2022-09-10T06:07:28.197Z,1480.00
2022-09-10T06:08:28.191Z,1496.00
2022-09-10T06:09:28.180Z,1524.00
2022-09-10T06:10:28.171Z,1548.00
2022-09-10T06:11:28.164Z,1584.00
2022-09-10T06:12:28.139Z,1616.00
2022-09-10T06:13:28.147Z,1656.00
2022-09-10T06:14:28.148Z,1692.00
2022-09-10T06:15:28.133Z,1724.00
2022-09-10T06:16:28.170Z,1748.00
2022-09-10T06:17:28.107Z,1788.00
2022-09-10T06:18:28.084Z,1812.00
2022-09-10T06:19:28.079Z,1836.00
2022-09-10T06:20:28.056Z,1848.00
2022-09-10T06:21:28.500Z,1868.00
2022-09-10T06:22:28.075Z,1884.00
2022-09-10T06:23:28.022Z,1916.00
2022-09-10T06:24:28.015Z,1944.00
2022-09-10T06:25:28.012Z,1968.00
2022-09-10T06:26:28.010Z,1984.00
2022-09-10T06:27:28.002Z,2000.00
2022-09-10T06:28:28.015Z,2012.00
2022-09-10T06:29:27.973Z,2032.00
2022-09-10T06:30:28.013Z,2044.00
2022-09-10T06:31:27.987Z,2064.00
2022-09-10T06:32:27.988Z,2076.00
2022-09-10T06:33:27.920Z,2092.00
2022-09-10T06:34:27.927Z,2108.00
2022-09-10T06:35:27.897Z,2128.00
2022-09-10T06:36:27.886Z,2144.00
2022-09-10T06:37:27.907Z,2164.00
2022-09-10T06:38:27.873Z,2180.00
2022-09-10T06:39:27.899Z,2196.00
2022-09-10T06:40:27.850Z,2208.00
2022-09-10T06:41:27.847Z,2216.00
2022-09-10T06:42:27.841Z,2232.00
2022-09-10T06:43:27.835Z,2244.00
2022-09-10T06:44:27.791Z,2260.00
2022-09-10T06:45:27.831Z,2276.00
2022-09-10T06:48:06.883Z,2312.00
2022-09-10T06:48:47.023Z,2332.00
2022-09-10T06:49:27.742Z,2352.00
2022-09-10T06:50:27.735Z,2376.00
2022-09-10T06:51:27.722Z,2396.00
2022-09-10T06:52:27.764Z,2416.00
2022-09-10T06:53:27.740Z,2436.00
2022-09-10T06:54:27.715Z,2456.00
2022-09-10T06:55:27.678Z,2480.00
2022-09-10T06:56:27.669Z,2504.00
2022-09-10T06:57:27.679Z,2528.00
2022-09-10T06:58:27.659Z,2560.00
2022-09-10T06:59:27.619Z,2592.00
2022-09-10T07:00:27.614Z,2620.00
2022-09-10T07:01:27.677Z,2648.00
2022-09-10T07:02:27.704Z,2676.00
2022-09-10T07:03:27.576Z,2700.00
2022-09-10T07:04:27.562Z,2724.00
2022-09-10T07:05:27.624Z,2752.00
2022-09-10T07:06:27.594Z,2780.00
2022-09-10T07:07:27.570Z,2808.00
2022-09-10T07:08:27.548Z,2840.00
2022-09-10T07:09:27.534Z,2872.00
2022-09-10T07:10:27.512Z,2904.00
2022-09-10T07:11:27.512Z,2936.00
2022-09-10T07:12:27.503Z,2976.00
2022-09-10T07:13:27.488Z,3008.00
2022-09-10T07:14:27.470Z,3040.00
2022-09-10T07:15:27.481Z,3072.00
2022-09-10T07:16:27.437Z,3100.00
2022-09-10T07:17:31.601Z,3124.00
2022-09-10T07:18:27.413Z,3152.00
2022-09-10T07:19:27.422Z,3172.00
2022-09-10T07:20:27.455Z,3192.00
2022-09-10T07:21:27.392Z,3220.00
2022-09-10T07:22:27.389Z,3248.00
2022-09-10T07:23:27.365Z,3272.00
2022-09-10T07:24:27.349Z,3296.00
2022-09-10T07:25:27.357Z,3320.00
2022-09-10T07:26:27.331Z,3348.00
2022-09-10T07:27:27.339Z,3372.00
2022-09-10T07:28:27.356Z,3392.00
2022-09-10T07:29:27.292Z,3412.00
2022-09-10T07:30:27.282Z,3432.00
2022-09-10T07:31:27.300Z,3456.00
2022-09-10T07:32:27.277Z,3480.00
2022-09-10T07:33:27.257Z,3508.00
2022-09-10T07:34:27.255Z,3536.00
2022-09-10T07:35:27.225Z,3572.00
2022-09-10T07:36:27.210Z,3600.00
2022-09-10T07:37:27.213Z,3628.00
2022-09-10T07:38:27.211Z,3644.00
2022-09-10T07:39:27.169Z,3652.00
2022-09-10T07:40:27.192Z,3664.00
2022-09-10T07:41:27.159Z,3668.00
2022-09-10T07:42:27.181Z,3672.00
2022-09-10T07:43:27.141Z,3680.00
2022-09-10T07:44:27.121Z,3680.00
2022-09-10T07:45:27.151Z,3684.00
2022-09-10T07:46:27.109Z,3716.00
2022-09-10T07:47:27.142Z,3764.00
2022-09-10T07:48:27.099Z,3812.00
2022-09-10T07:49:27.065Z,3836.00
2022-09-10T07:50:27.071Z,3856.00
2022-09-10T07:51:27.080Z,3884.00
2022-09-10T07:52:27.074Z,3924.00
2022-09-10T07:53:27.057Z,3976.00
2022-09-10T07:54:27.023Z,4028.00
2022-09-10T07:55:27.003Z,4076.00
2022-09-10T07:56:27.028Z,4136.00
2022-09-10T07:57:26.999Z,4156.00
2022-09-10T07:58:26.986Z,4192.00
2022-09-10T07:59:26.968Z,4232.00
2022-09-10T08:00:26.962Z,4240.00
2022-09-10T08:01:26.952Z,4256.00
2022-09-10T08:02:27.024Z,4272.00
2022-09-10T08:03:26.944Z,4296.00
2022-09-10T08:04:26.918Z,4324.00
2022-09-10T08:05:26.894Z,4300.00
2022-09-10T08:06:26.888Z,4288.00
2022-09-10T08:07:26.890Z,4336.00
2022-09-10T08:08:26.877Z,4412.00
2022-09-10T08:09:26.856Z,4492.00
2022-09-10T08:10:26.836Z,4572.00
2022-09-10T08:11:26.824Z,4624.00
2022-09-10T08:12:26.877Z,4624.00
2022-09-10T08:13:26.824Z,4664.00
2022-09-10T08:14:26.797Z,4804.00
2022-09-10T08:15:26.802Z,4888.00
2022-09-10T08:16:26.811Z,4924.00
2022-09-10T08:17:26.803Z,4960.00
2022-09-10T08:18:26.778Z,5024.00
2022-09-10T08:19:26.764Z,5048.00
2022-09-10T08:20:26.734Z,4996.00
2022-09-10T08:21:26.729Z,4824.00
2022-09-10T08:22:26.742Z,4600.00
2022-09-10T08:23:26.751Z,4456.00
2022-09-10T08:24:26.728Z,4376.00
2022-09-10T08:25:26.676Z,4296.00
2022-09-10T08:26:26.669Z,4192.00
2022-09-10T08:27:26.705Z,4096.00
2022-09-10T08:28:26.655Z,4064.00
2022-09-10T08:29:26.652Z,4076.00
2022-09-10T08:30:26.633Z,4152.00
2022-09-10T08:31:26.719Z,4224.00
2022-09-10T08:32:26.633Z,4208.00
2022-09-10T08:33:26.598Z,4128.00
2022-09-10T08:34:26.585Z,4092.00
2022-09-10T08:35:26.572Z,4188.00
2022-09-10T08:36:26.565Z,4348.00
2022-09-10T08:37:26.598Z,4456.00
2022-09-10T08:38:26.546Z,4512.00
2022-09-10T08:39:26.541Z,4544.00
2022-09-10T08:40:26.513Z,4572.00
2022-09-10T08:41:26.526Z,4560.00
2022-09-10T08:42:26.585Z,4648.00
2022-09-10T08:43:26.478Z,4804.00
2022-09-10T08:44:26.500Z,4960.00
2022-09-10T08:45:26.468Z,5124.00
2022-09-10T08:46:26.462Z,5344.00
2022-09-10T08:47:26.452Z,5604.00
2022-09-10T08:48:26.428Z,5888.00
2022-09-10T08:49:26.423Z,6172.00
2022-09-10T08:50:26.413Z,6420.00
2022-09-10T08:51:26.406Z,6652.00
2022-09-10T08:52:26.431Z,6740.00
2022-09-10T08:53:26.370Z,6656.00
2022-09-10T08:54:26.370Z,6420.00
2022-09-10T08:55:26.358Z,6188.00
2022-09-10T08:56:26.343Z,6008.00
2022-09-10T08:57:26.342Z,6012.00
2022-09-10T08:58:26.327Z,6216.00
2022-09-10T08:59:26.304Z,6340.00
2022-09-10T09:00:26.295Z,6324.00
2022-09-10T09:01:26.313Z,6392.00
2022-09-10T09:02:47.188Z,6500.00
2022-09-10T09:03:26.271Z,6500.00
2022-09-10T09:04:26.276Z,6316.00
2022-09-10T09:05:26.254Z,6124.00
2022-09-10T09:06:26.288Z,6044.00
2022-09-10T09:07:26.226Z,6120.00
2022-09-10T09:08:26.203Z,6336.00
2022-09-10T09:09:26.214Z,6552.00
2022-09-10T09:10:26.183Z,6688.00
2022-09-10T09:11:26.176Z,6744.00
2022-09-10T09:12:26.198Z,6896.00
2022-09-10T09:13:26.145Z,7160.00
2022-09-10T09:14:26.143Z,7376.00
2022-09-10T09:15:26.141Z,7340.00
2022-09-10T09:16:26.138Z,7208.00
2022-09-10T09:17:26.126Z,6968.00
2022-09-10T09:18:26.106Z,6844.00
2022-09-10T09:19:26.090Z,6856.00
2022-09-10T09:20:26.079Z,6936.00
2022-09-10T09:21:26.074Z,6972.00
2022-09-10T09:22:26.070Z,6904.00
2022-09-10T09:23:26.042Z,6800.00
2022-09-10T09:24:26.033Z,6776.00
2022-09-10T09:25:26.026Z,6836.00
2022-09-10T09:26:26.028Z,6904.00
2022-09-10T09:27:26.019Z,6940.00
2022-09-10T09:28:25.987Z,6904.00
2022-09-10T09:29:25.980Z,6880.00
2022-09-10T09:30:25.983Z,6976.00
2022-09-10T09:31:26.032Z,7024.00
2022-09-10T09:32:25.972Z,7216.00
2022-09-10T09:33:25.940Z,7420.00
2022-09-10T09:34:25.917Z,7472.00
2022-09-10T09:35:25.926Z,7440.00
2022-09-10T09:36:25.904Z,7300.00
2022-09-10T09:37:25.938Z,7152.00
2022-09-10T09:38:25.900Z,6948.00
2022-09-10T09:39:25.888Z,6824.00
2022-09-10T09:40:25.874Z,6772.00
2022-09-10T09:41:25.873Z,6720.00
2022-09-10T09:42:25.863Z,6668.00
2022-09-10T09:43:25.829Z,6688.00
2022-09-10T09:44:25.848Z,6744.00
2022-09-10T09:45:25.804Z,6812.00
2022-09-10T09:46:25.806Z,6820.00
2022-09-10T09:47:25.803Z,6764.00
2022-09-10T09:48:25.775Z,6672.00
2022-09-10T09:49:25.775Z,6544.00
2022-09-10T09:50:25.766Z,6308.00
2022-09-10T09:51:25.744Z,5808.00
2022-09-10T09:52:25.769Z,5164.00
2022-09-10T09:53:25.728Z,4356.00
2022-09-10T09:55:25.702Z,3224.00
2022-09-10T09:56:25.693Z,2952.00
2022-09-10T09:57:25.705Z,2688.00
2022-09-10T09:58:25.668Z,2504.00
2022-09-10T09:59:25.662Z,2424.00
2022-09-10T10:00:25.648Z,2448.00
2022-09-10T10:01:25.703Z,2548.00
2022-09-10T10:02:25.695Z,2740.00
2022-09-10T10:03:25.608Z,2964.00
2022-09-10T10:04:25.648Z,3152.00
2022-09-10T10:05:25.616Z,3272.00
2022-09-10T10:06:25.592Z,3440.00
2022-09-10T10:07:25.615Z,3760.00
2022-09-10T10:08:25.555Z,4012.00
2022-09-10T10:09:25.557Z,4220.00
2022-09-10T10:10:25.534Z,4368.00
2022-09-10T10:11:25.544Z,4448.00
2022-09-10T10:12:25.554Z,4528.00
2022-09-10T10:13:25.497Z,4632.00
2022-09-10T10:14:25.503Z,4764.00
2022-09-10T10:15:25.469Z,4936.00
2022-09-10T10:16:25.489Z,5152.00
2022-09-10T10:17:25.485Z,5340.00
2022-09-10T10:18:25.449Z,5500.00
2022-09-10T10:19:25.434Z,5608.00
2022-09-10T10:20:25.426Z,5624.00
2022-09-10T10:21:25.410Z,5676.00
2022-09-10T10:22:25.426Z,5808.00
2022-09-10T10:23:29.195Z,6012.00
2022-09-10T10:24:25.427Z,6304.00
2022-09-10T10:25:25.369Z,6824.00
2022-09-10T10:26:25.361Z,7072.00
2022-09-10T10:27:25.375Z,7428.00
2022-09-10T10:28:25.337Z,7336.00
2022-09-10T10:29:25.323Z,7628.00
2022-09-10T10:30:25.323Z,7680.00
2022-09-10T10:31:25.328Z,7724.00
2022-09-10T10:32:25.342Z,7780.00
2022-09-10T10:33:25.278Z,7852.00
2022-09-10T10:34:25.268Z,7932.00
2022-09-10T10:35:25.286Z,7948.00
2022-09-10T10:36:25.245Z,7784.00
2022-09-10T10:37:25.262Z,7512.00
2022-09-10T10:38:25.239Z,7252.00
2022-09-10T10:39:25.218Z,7212.00
2022-09-10T10:40:25.210Z,7272.00
2022-09-10T10:41:25.193Z,7408.00
2022-09-10T10:42:25.200Z,7716.00
2022-09-10T10:43:25.172Z,7312.00
2022-09-10T10:44:25.167Z,7096.00
2022-09-10T10:45:25.158Z,7012.00
2022-09-10T10:46:25.156Z,7012.00
2022-09-10T10:47:25.143Z,6980.00
2022-09-10T10:48:25.133Z,6960.00
2022-09-10T10:49:25.117Z,6916.00
2022-09-10T10:50:25.108Z,6896.00
2022-09-10T10:51:25.079Z,6956.00
2022-09-10T10:52:25.097Z,7092.00
2022-09-10T10:53:25.086Z,7232.00
2022-09-10T10:54:31.616Z,7236.00
2022-09-10T10:55:25.036Z,7244.00
2022-09-10T10:56:25.022Z,8612.00
2022-09-10T10:57:25.026Z,8376.00
2022-09-10T10:58:25.004Z,6728.00
2022-09-10T10:59:24.994Z,6880.00
2022-09-10T11:00:24.987Z,7052.00
2022-09-10T11:01:25.006Z,7356.00
2022-09-10T11:02:25.031Z,7608.00
2022-09-10T11:03:24.952Z,7716.00
2022-09-10T11:04:24.937Z,7860.00
2022-09-10T11:05:24.926Z,7844.00
2022-09-10T11:06:24.923Z,7596.00
2022-09-10T11:07:24.919Z,7500.00
2022-09-10T11:08:24.905Z,7664.00
2022-09-10T11:09:24.908Z,7864.00
2022-09-10T11:10:24.887Z,8000.00
2022-09-10T11:11:24.866Z,8064.00
2022-09-10T11:12:24.865Z,8292.00
2022-09-10T11:13:24.845Z,8752.00
2022-09-10T11:14:24.830Z,8800.00
2022-09-10T11:15:24.823Z,8784.00
2022-09-10T11:16:24.813Z,8348.00
2022-09-10T11:17:24.808Z,8204.00
2022-09-10T11:18:24.786Z,8148.00
2022-09-10T11:19:24.776Z,8140.00
2022-09-10T11:20:28.847Z,8076.00
2022-09-10T11:21:24.759Z,8076.00
2022-09-10T11:22:24.766Z,8148.00
2022-09-10T11:23:24.735Z,8452.00
2022-09-10T11:24:24.728Z,8740.00
2022-09-10T11:25:24.706Z,8508.00
2022-09-10T11:26:24.705Z,8316.00
2022-09-10T11:27:24.718Z,8180.00
2022-09-10T11:28:24.675Z,8604.00
2022-09-10T11:29:24.673Z,8468.00
2022-09-10T11:30:24.670Z,8396.00
2022-09-10T11:31:24.698Z,8196.00
2022-09-10T11:32:24.640Z,8056.00
2022-09-10T11:33:24.644Z,8020.00
2022-09-10T11:34:24.622Z,7856.00
2022-09-10T11:35:24.605Z,7672.00
2022-09-10T11:36:24.593Z,7504.00
2022-09-10T11:37:24.586Z,7460.00
2022-09-10T11:38:24.596Z,7124.00
2022-09-10T11:39:24.665Z,6800.00
2022-09-10T11:40:24.548Z,7208.00
2022-09-10T11:41:24.542Z,7072.00
2022-09-10T11:42:24.532Z,7044.00
2022-09-10T11:43:24.536Z,6992.00
2022-09-10T11:44:24.510Z,6780.00
2022-09-10T11:45:24.503Z,6484.00
2022-09-10T11:46:24.612Z,6232.00
2022-09-10T11:47:24.478Z,5932.00
2022-09-10T11:48:24.497Z,5776.00
2022-09-10T11:49:24.463Z,5812.00
2022-09-10T11:50:24.447Z,5808.00
2022-09-10T11:51:24.434Z,5856.00
2022-09-10T11:52:24.421Z,5880.00
2022-09-10T11:53:24.428Z,5904.00
2022-09-10T11:54:24.407Z,6024.00
2022-09-10T11:55:24.390Z,6176.00
2022-09-10T11:56:24.399Z,6268.00
2022-09-10T11:57:24.362Z,6384.00
2022-09-10T11:58:24.391Z,6472.00
2022-09-10T11:59:24.344Z,6400.00
2022-09-10T12:00:24.355Z,6264.00
2022-09-10T12:01:24.321Z,6140.00
2022-09-10T12:02:24.337Z,6048.00
2022-09-10T12:03:24.379Z,5956.00
2022-09-10T12:04:24.314Z,5692.00
2022-09-10T12:05:24.282Z,5520.00
2022-09-10T12:06:24.274Z,5400.00
2022-09-10T12:07:24.253Z,5224.00
2022-09-10T12:08:24.269Z,5140.00
2022-09-10T12:09:24.241Z,5060.00
2022-09-10T12:10:24.229Z,5016.00
2022-09-10T12:11:24.219Z,4924.00
2022-09-10T12:12:24.211Z,4772.00
2022-09-10T12:13:24.209Z,4632.00
2022-09-10T12:14:24.193Z,4584.00
2022-09-10T12:15:24.170Z,4592.00
2022-09-10T12:16:24.167Z,4500.00
2022-09-10T12:17:24.148Z,4488.00
2022-09-10T12:18:24.164Z,4388.00
2022-09-10T12:19:24.132Z,4460.00
2022-09-10T12:20:24.123Z,4588.00
2022-09-10T12:21:24.111Z,4760.00
2022-09-10T12:22:24.100Z,5080.00
2022-09-10T12:23:24.102Z,5396.00
2022-09-10T12:24:24.081Z,5596.00
2022-09-10T12:25:24.062Z,5772.00
2022-09-10T12:26:24.072Z,6260.00
2022-09-10T12:27:24.042Z,7036.00
2022-09-10T12:28:24.050Z,7360.00
2022-09-10T12:29:24.028Z,7684.00
2022-09-10T12:30:24.017Z,8088.00
2022-09-10T12:31:24.027Z,8584.00
2022-09-10T12:32:23.993Z,9000.00
2022-09-10T12:33:23.994Z,9076.00
2022-09-10T12:34:23.972Z,8620.00
2022-09-10T12:35:23.956Z,8128.00